createdAt,value
2019-05-02T00:01:46.586Z,10.28
2019-05-02T00:04:20.099Z,10.75
2019-05-02T00:06:42.976Z,8.90
2019-05-02T00:09:11.187Z,9.90
2019-05-02T00:11:37.962Z,9.90
2019-05-02T00:14:04.541Z,11.50
2019-05-02T00:16:31.135Z,8.03
2019-05-02T00:18:57.718Z,10.70
2019-05-02T00:21:24.307Z,9.15
2019-05-02T00:23:50.882Z,11.57
2019-05-02T00:26:17.485Z,10.90
2019-05-02T00:28:47.931Z,7.78
2019-05-02T00:31:12.878Z,8.50
2019-05-02T00:33:39.646Z,9.08
2019-05-02T00:36:06.262Z,8.38
2019-05-02T00:38:33.399Z,12.10
2019-05-02T00:41:02.274Z,9.55
2019-05-02T00:43:34.314Z,13.10
2019-05-02T00:45:59.827Z,11.18
2019-05-02T00:48:26.108Z,8.53
2019-05-02T00:50:52.715Z,10.58
2019-05-02T00:53:19.284Z,13.35
2019-05-02T00:55:45.910Z,10.72
2019-05-02T00:58:12.481Z,10.58
2019-05-02T01:00:39.080Z,9.83
2019-05-02T01:03:05.648Z,9.73
2019-05-02T01:05:33.839Z,9.60
2019-05-02T01:08:01.028Z,11.45
2019-05-02T01:10:28.886Z,11.50
2019-05-02T01:12:55.459Z,10.18
2019-05-02T01:15:22.029Z,10.88
2019-05-02T01:17:48.633Z,11.73
2019-05-02T01:20:15.230Z,10.13
2019-05-02T01:22:41.824Z,10.43
2019-05-02T01:25:14.944Z,9.78
2019-05-02T01:27:41.249Z,9.95
2019-05-02T01:30:05.880Z,12.00
2019-05-02T01:32:33.366Z,11.40
2019-05-02T01:34:59.936Z,12.28
2019-05-02T01:37:26.548Z,8.13
2019-05-02T01:39:53.126Z,11.43
2019-05-02T01:42:19.734Z,9.18
2019-05-02T01:44:46.303Z,9.68
2019-05-02T01:47:12.919Z,12.73
2019-05-02T01:49:39.508Z,13.20
2019-05-02T01:52:06.084Z,11.48
2019-05-02T01:54:32.657Z,9.68
2019-05-02T01:56:59.273Z,11.28
2019-05-02T01:59:29.155Z,16.25
2019-05-02T02:01:57.905Z,14.60
2019-05-02T02:04:22.512Z,12.00
2019-05-02T02:06:49.125Z,11.63
2019-05-02T02:09:15.698Z,13.65
2019-05-02T02:11:42.311Z,16.45
2019-05-02T02:14:12.901Z,17.45
2019-05-02T02:16:39.231Z,14.83
2019-05-02T02:19:05.627Z,15.18
2019-05-02T02:21:32.258Z,13.90
2019-05-02T02:23:58.837Z,17.30
2019-05-02T02:26:25.411Z,16.30
2019-05-02T02:28:52.027Z,21.48
2019-05-02T02:31:18.608Z,14.13
2019-05-02T02:33:48.104Z,18.00
2019-05-02T02:36:13.512Z,17.55
2019-05-02T02:38:40.105Z,15.38
2019-05-02T02:41:12.995Z,16.35
2019-05-02T02:43:35.233Z,19.50
2019-05-02T02:46:01.886Z,19.77
2019-05-02T02:48:33.872Z,19.37
2019-05-02T02:50:56.800Z,21.15
2019-05-02T02:53:24.186Z,21.10
2019-05-02T02:56:00.825Z,24.30
2019-05-02T02:58:20.128Z,21.40
2019-05-02T03:00:47.644Z,21.52
2019-05-02T03:03:20.698Z,20.43
2019-05-02T03:05:43.463Z,22.17
2019-05-02T03:08:10.146Z,22.15
2019-05-02T03:10:39.877Z,28.15
2019-05-02T03:13:05.049Z,23.27
2019-05-02T03:15:31.630Z,23.00
2019-05-02T03:17:59.911Z,23.55
2019-05-02T03:20:26.546Z,22.50
2019-05-02T03:22:53.329Z,24.55
2019-05-02T03:25:27.038Z,24.12
2019-05-02T03:27:48.244Z,25.30
2019-05-02T03:30:28.731Z,28.23
2019-05-02T03:33:03.409Z,25.12
2019-05-02T03:35:17.979Z,24.35
2019-05-02T03:37:44.731Z,26.27
2019-05-02T03:40:08.122Z,24.87
2019-05-02T03:42:43.660Z,24.07
2019-05-02T03:45:04.968Z,26.70
2019-05-02T03:47:36.686Z,25.17
2019-05-02T03:49:59.685Z,22.42
2019-05-02T03:52:26.251Z,28.15
2019-05-02T03:54:52.901Z,26.68
2019-05-02T03:57:31.679Z,25.32
2019-05-02T03:59:47.856Z,23.18
2019-05-02T04:02:20.476Z,23.77
2019-05-02T04:04:42.790Z,24.47
2019-05-02T04:07:09.366Z,25.60
2019-05-02T04:09:42.008Z,23.27
2019-05-02T04:12:04.282Z,25.00
2019-05-02T04:14:38.107Z,24.63
2019-05-02T04:16:59.479Z,29.02
2019-05-02T04:19:28.615Z,24.55
2019-05-02T04:21:54.983Z,19.80
2019-05-02T04:24:21.772Z,23.70
2019-05-02T04:26:53.831Z,20.82
2019-05-02T04:29:16.678Z,33.53
2019-05-02T04:31:43.264Z,23.55
2019-05-02T04:34:15.133Z,21.68
2019-05-02T04:36:38.172Z,23.95
2019-05-02T04:39:05.719Z,21.48
2019-05-02T04:41:34.313Z,21.27
2019-05-02T04:44:01.754Z,23.25
2019-05-02T04:46:31.192Z,20.12
2019-05-02T04:48:58.904Z,22.40
2019-05-02T04:51:27.629Z,22.85
2019-05-02T04:53:53.523Z,22.30
2019-05-02T04:56:20.093Z,24.80
2019-05-02T04:58:49.398Z,29.25
2019-05-02T05:01:15.010Z,24.47
2019-05-02T05:03:41.614Z,21.42
2019-05-02T05:06:12.193Z,33.38
2019-05-02T05:08:38.838Z,29.35
2019-05-02T05:11:04.811Z,26.00
2019-05-02T05:13:31.422Z,24.02
2019-05-02T05:15:58.000Z,28.23
2019-05-02T05:18:24.573Z,21.90
2019-05-02T05:20:52.909Z,28.92
2019-05-02T05:23:21.536Z,25.72
2019-05-02T05:25:50.415Z,23.65
2019-05-02T05:28:19.827Z,27.62
2019-05-02T05:30:45.486Z,30.85
2019-05-02T05:33:12.834Z,21.70
2019-05-02T05:35:43.309Z,25.15
2019-05-02T05:38:07.849Z,22.52
2019-05-02T05:40:34.518Z,22.00
2019-05-02T05:43:02.665Z,22.55
2019-05-02T05:45:29.421Z,22.40
2019-05-02T05:47:57.491Z,19.87
2019-05-02T05:50:24.336Z,27.37
2019-05-02T05:52:51.958Z,19.10
2019-05-02T05:55:24.041Z,14.83
2019-05-02T05:57:49.747Z,17.73
2019-05-02T06:00:18.828Z,15.95
2019-05-02T06:02:53.790Z,17.23
2019-05-02T06:05:12.094Z,27.95
2019-05-02T06:07:41.891Z,19.02
2019-05-02T06:10:07.919Z,14.00
2019-05-02T06:12:35.625Z,13.03
2019-05-02T06:15:03.812Z,10.72
2019-05-02T06:17:30.608Z,14.33
2019-05-02T06:19:57.230Z,16.75
2019-05-02T06:22:24.686Z,18.73
2019-05-02T06:24:52.221Z,9.63
2019-05-02T06:27:20.834Z,11.55
2019-05-02T06:29:51.194Z,10.75
2019-05-02T06:32:19.272Z,16.32
2019-05-02T06:34:46.347Z,10.13
2019-05-02T06:37:13.599Z,13.20
2019-05-02T06:39:40.514Z,9.10
2019-05-02T06:42:07.089Z,7.62
2019-05-02T06:44:33.707Z,12.40
2019-05-02T06:47:04.404Z,10.95
2019-05-02T06:49:28.579Z,10.60
2019-05-02T06:51:56.204Z,12.75
2019-05-02T06:54:24.074Z,9.25
2019-05-02T06:56:50.856Z,13.13
2019-05-02T06:59:18.458Z,13.28
2019-05-02T07:01:45.769Z,10.70
2019-05-02T07:04:12.360Z,11.35
2019-05-02T07:06:50.054Z,14.23
2019-05-02T07:09:07.432Z,11.83
2019-05-02T07:11:38.908Z,11.35
2019-05-02T07:14:13.180Z,10.58
2019-05-02T07:16:38.394Z,16.50
2019-05-02T07:18:59.216Z,11.35
2019-05-02T07:21:25.822Z,13.28
2019-05-02T07:23:53.796Z,12.47
2019-05-02T07:26:22.900Z,18.00
2019-05-02T07:28:49.011Z,12.23
2019-05-02T07:31:15.626Z,18.82
2019-05-02T07:33:42.204Z,12.37
2019-05-02T07:36:08.829Z,16.90
2019-05-02T07:38:35.408Z,11.08
2019-05-02T07:41:02.008Z,10.98
2019-05-02T07:43:28.568Z,12.25
2019-05-02T07:45:55.178Z,13.53
2019-05-02T07:48:21.766Z,17.12
2019-05-02T07:50:48.483Z,13.98
2019-05-02T07:53:15.065Z,14.18
2019-05-02T07:55:42.716Z,13.90
2019-05-02T07:58:09.422Z,16.62
2019-05-02T08:00:37.038Z,15.35
2019-05-02T08:03:05.145Z,16.55
2019-05-02T08:05:31.910Z,13.53
2019-05-02T08:07:58.498Z,13.18
2019-05-02T08:10:25.100Z,15.40
2019-05-02T08:12:51.671Z,17.67
2019-05-02T08:15:18.263Z,15.45
2019-05-02T08:17:53.117Z,14.80
2019-05-02T08:20:13.605Z,13.00
2019-05-02T08:22:44.043Z,13.93
2019-05-02T08:25:10.875Z,14.75
2019-05-02T08:27:38.155Z,15.80
2019-05-02T08:30:05.932Z,9.23
2019-05-02T08:32:32.720Z,16.37
2019-05-02T08:34:59.296Z,11.85
2019-05-02T08:37:25.886Z,16.82
2019-05-02T08:39:52.459Z,11.95
2019-05-02T08:42:19.067Z,11.53
2019-05-02T08:44:51.370Z,16.55
2019-05-02T08:47:19.057Z,12.78
2019-05-02T08:49:42.549Z,15.80
2019-05-02T08:52:09.363Z,16.37
2019-05-02T08:54:35.931Z,16.75
2019-05-02T08:57:02.553Z,21.10
2019-05-02T08:59:29.123Z,11.97
2019-05-02T09:01:55.819Z,15.23
2019-05-02T09:04:24.235Z,13.00
2019-05-02T09:06:53.137Z,16.12
2019-05-02T09:09:22.713Z,15.13
2019-05-02T09:11:57.539Z,13.83
2019-05-02T09:14:15.670Z,16.17
2019-05-02T09:16:42.707Z,15.23
2019-05-02T09:19:13.494Z,12.13
2019-05-02T09:21:37.764Z,16.52
2019-05-02T09:24:08.575Z,13.03
2019-05-02T09:26:37.924Z,20.90
2019-05-02T09:29:05.417Z,20.40
2019-05-02T09:31:31.953Z,12.88
2019-05-02T09:33:58.685Z,18.17
2019-05-02T09:36:25.301Z,14.10
2019-05-02T09:38:55.938Z,16.48
2019-05-02T09:41:22.098Z,13.13
2019-05-02T09:43:48.525Z,14.35
2019-05-02T09:46:16.584Z,13.00
2019-05-02T09:48:43.406Z,14.23
2019-05-02T09:51:12.889Z,14.07
2019-05-02T09:53:38.325Z,15.30
2019-05-02T09:56:04.905Z,16.23
2019-05-02T09:58:32.040Z,15.93
2019-05-02T10:00:58.762Z,13.32
2019-05-02T10:03:25.385Z,16.00
2019-05-02T10:05:52.370Z,15.25
2019-05-02T10:08:19.138Z,13.88
2019-05-02T10:10:46.219Z,11.18
2019-05-02T10:13:12.994Z,8.73
2019-05-02T10:15:41.955Z,9.55
2019-05-02T10:18:11.487Z,11.68
2019-05-02T10:20:36.702Z,11.90
2019-05-02T10:23:03.347Z,10.38
2019-05-02T10:25:32.850Z,8.90
2019-05-02T10:27:58.259Z,11.73
2019-05-02T10:30:24.840Z,11.68
2019-05-02T10:32:55.576Z,11.53
2019-05-02T10:35:19.747Z,9.80
2019-05-02T10:37:46.347Z,11.70
2019-05-02T10:40:17.044Z,10.85
2019-05-02T10:42:43.632Z,8.80
2019-05-02T10:45:13.040Z,11.83
2019-05-02T10:47:38.555Z,7.83
2019-05-02T10:50:05.128Z,8.35
2019-05-02T10:52:34.167Z,9.23
2019-05-02T10:55:02.506Z,9.43
2019-05-02T10:57:28.360Z,19.00
2019-05-02T10:59:56.269Z,6.87
2019-05-02T11:02:22.934Z,10.48
2019-05-02T11:04:49.510Z,11.40
2019-05-02T11:07:16.999Z,11.03
2019-05-02T11:09:44.453Z,18.52
2019-05-02T11:12:11.879Z,13.35
2019-05-02T11:14:38.611Z,15.50
2019-05-02T11:17:08.759Z,9.55
2019-05-02T11:19:33.537Z,7.42
2019-05-02T11:22:00.108Z,12.13
2019-05-02T11:24:26.698Z,9.73
2019-05-02T11:26:53.315Z,9.20
2019-05-02T11:29:20.045Z,9.65
2019-05-02T11:31:46.609Z,9.08
2019-05-02T11:34:13.264Z,14.80
2019-05-02T11:36:41.547Z,9.28
2019-05-02T11:39:15.949Z,16.52
2019-05-02T11:41:36.501Z,13.50
2019-05-02T11:44:03.158Z,15.00
2019-05-02T11:46:29.860Z,11.05
2019-05-02T11:48:58.673Z,8.28
2019-05-02T11:51:24.775Z,10.10
2019-05-02T11:53:52.631Z,12.82
2019-05-02T11:56:19.551Z,7.92
2019-05-02T11:58:48.078Z,7.47
2019-05-02T12:01:14.570Z,9.48
2019-05-02T12:03:42.335Z,16.02
2019-05-02T12:06:12.209Z,10.20
2019-05-02T12:08:39.425Z,9.53
2019-05-02T12:11:08.470Z,12.25
2019-05-02T12:13:33.972Z,11.35
2019-05-02T12:16:02.554Z,11.35
2019-05-02T12:18:28.873Z,11.48
2019-05-02T12:20:55.451Z,15.13
2019-05-02T12:23:22.614Z,8.85
2019-05-02T12:25:49.432Z,8.03
2019-05-02T12:28:16.001Z,16.17
2019-05-02T12:30:42.595Z,14.65
2019-05-02T12:33:09.170Z,9.28
2019-05-02T12:35:35.774Z,7.75
2019-05-02T12:38:02.752Z,7.12
2019-05-02T12:40:29.522Z,11.88
2019-05-02T12:42:56.102Z,13.22
2019-05-02T12:45:22.685Z,13.68
2019-05-02T12:47:49.253Z,10.00
2019-05-02T12:50:18.363Z,11.08
2019-05-02T12:52:44.930Z,8.35
2019-05-02T12:55:12.756Z,8.85
2019-05-02T12:57:39.497Z,8.45
2019-05-02T13:00:06.088Z,13.80
2019-05-02T13:02:32.706Z,10.15
2019-05-02T13:04:59.324Z,8.33
2019-05-02T13:07:25.911Z,11.03
2019-05-02T13:09:52.875Z,8.90
2019-05-02T13:12:19.569Z,11.63
2019-05-02T13:14:46.162Z,9.70
2019-05-02T13:17:12.729Z,15.00
2019-05-02T13:19:41.375Z,12.25
2019-05-02T13:22:07.640Z,10.03
2019-05-02T13:24:34.420Z,9.15
2019-05-02T13:27:03.991Z,15.50
2019-05-02T13:29:29.297Z,10.93
2019-05-02T13:31:55.867Z,8.30
2019-05-02T13:34:22.452Z,8.80
2019-05-02T13:36:49.052Z,11.70
2019-05-02T13:39:15.624Z,9.78
2019-05-02T13:41:42.783Z,9.15
2019-05-02T13:44:09.496Z,14.55
2019-05-02T13:46:36.151Z,9.55
2019-05-02T13:49:02.732Z,10.10
2019-05-02T13:51:29.328Z,10.45
2019-05-02T13:53:55.898Z,11.28
2019-05-02T13:56:22.515Z,9.18
2019-05-02T13:58:49.093Z,11.25
2019-05-02T14:01:15.706Z,8.98
2019-05-02T14:03:42.267Z,7.92
2019-05-02T14:06:08.895Z,9.00
2019-05-02T14:08:37.048Z,8.40
2019-05-02T14:11:03.875Z,7.58
2019-05-02T14:13:31.597Z,7.25
2019-05-02T14:15:58.445Z,7.25
2019-05-02T14:18:29.203Z,8.13
2019-05-02T14:20:53.358Z,8.75
2019-05-02T14:23:21.699Z,7.53
2019-05-02T14:25:48.926Z,7.85
2019-05-02T14:28:15.504Z,13.72
2019-05-02T14:30:46.129Z,8.95
2019-05-02T14:33:11.754Z,10.40
2019-05-02T14:35:38.486Z,6.72
2019-05-02T14:38:05.056Z,9.23
2019-05-02T14:40:31.990Z,7.75
2019-05-02T14:43:03.492Z,11.57
2019-05-02T14:45:31.153Z,6.67
2019-05-02T14:48:00.355Z,8.20
2019-05-02T14:50:26.516Z,9.20
2019-05-02T14:52:51.965Z,6.65
2019-05-02T14:55:22.214Z,10.03
2019-05-02T14:57:46.910Z,10.10
2019-05-02T15:00:13.481Z,8.75
2019-05-02T15:02:47.175Z,9.98
2019-05-02T15:05:08.359Z,8.53
2019-05-02T15:07:34.975Z,6.58
2019-05-02T15:10:05.407Z,9.35
2019-05-02T15:12:29.863Z,8.30
2019-05-02T15:14:58.695Z,9.75
2019-05-02T15:17:28.066Z,8.53
2019-05-02T15:19:53.056Z,6.70
2019-05-02T15:22:22.841Z,8.28
2019-05-02T15:24:49.418Z,7.15
2019-05-02T15:27:17.724Z,8.48
2019-05-02T15:29:44.331Z,6.65
2019-05-02T15:32:12.672Z,10.32
2019-05-02T15:34:46.269Z,8.50
2019-05-02T15:37:07.571Z,7.05
2019-05-02T15:42:02.474Z,7.65
2019-05-02T15:44:29.048Z,10.78
2019-05-02T15:46:58.432Z,7.22
2019-05-02T15:49:23.952Z,6.67
2019-05-02T15:51:52.263Z,8.38
2019-05-02T15:54:20.267Z,7.53
2019-05-02T15:56:54.108Z,8.95
2019-05-02T15:59:15.527Z,12.35
2019-05-02T16:01:47.340Z,8.93
2019-05-02T16:04:10.451Z,10.08
2019-05-02T16:06:37.024Z,6.80
2019-05-02T16:09:03.615Z,16.02
2019-05-02T16:11:32.081Z,7.03
2019-05-02T16:13:58.507Z,6.45
2019-05-02T16:16:25.083Z,9.95
2019-05-02T16:18:52.512Z,8.98
2019-05-02T16:21:28.411Z,10.82
2019-05-02T16:23:47.793Z,7.35
2019-05-02T16:26:14.373Z,10.80
2019-05-02T16:28:42.092Z,9.88
2019-05-02T16:31:09.286Z,9.85
2019-05-02T16:33:35.874Z,8.98
2019-05-02T16:36:02.764Z,7.95
2019-05-02T16:38:32.351Z,9.43
2019-05-02T16:41:04.046Z,8.98
2019-05-02T16:43:26.046Z,9.35
2019-05-02T16:45:52.661Z,12.75
2019-05-02T16:48:19.333Z,8.78
2019-05-02T16:50:45.915Z,11.70
2019-05-02T16:53:12.527Z,13.35
2019-05-02T16:55:39.095Z,7.40
2019-05-02T16:58:07.242Z,10.18
2019-05-02T17:00:36.838Z,8.75
2019-05-02T17:03:03.820Z,7.92
2019-05-02T17:05:32.463Z,10.90
2019-05-02T17:07:58.980Z,13.70
2019-05-02T17:10:25.591Z,8.20
2019-05-02T17:12:56.317Z,10.60
2019-05-02T17:15:21.956Z,10.98
2019-05-02T17:17:48.827Z,8.43
2019-05-02T17:20:16.773Z,8.13
2019-05-02T17:22:43.913Z,7.33
2019-05-02T17:25:12.335Z,10.28
2019-05-02T17:27:39.111Z,9.35
2019-05-02T17:30:05.702Z,9.10
2019-05-02T17:32:34.152Z,7.90
2019-05-02T17:35:02.654Z,35.33
2019-05-02T17:37:28.914Z,14.63
2019-05-02T17:39:55.520Z,10.55
2019-05-02T17:42:25.706Z,9.03
2019-05-02T17:44:51.801Z,10.45
2019-05-02T17:47:18.742Z,12.05
2019-05-02T17:49:45.343Z,8.00
2019-05-02T17:52:19.917Z,9.28
2019-05-02T17:54:42.233Z,9.85
2019-05-02T17:57:08.546Z,12.33
2019-05-02T17:59:37.557Z,11.12
2019-05-02T18:02:06.653Z,9.80
2019-05-02T18:04:32.470Z,14.60
2019-05-02T18:06:59.225Z,20.08
2019-05-02T18:09:26.398Z,14.63
2019-05-02T18:11:54.151Z,11.83
2019-05-02T18:14:22.090Z,13.98
2019-05-02T18:16:52.013Z,14.50
2019-05-02T18:19:21.836Z,11.78
2019-05-02T18:21:45.680Z,11.03
2019-05-02T18:24:12.640Z,14.18
2019-05-02T18:26:39.438Z,9.15
2019-05-02T18:29:06.953Z,16.85
2019-05-02T18:31:34.833Z,15.93
2019-05-02T18:34:01.997Z,68.80
2019-05-02T18:36:28.596Z,27.67
2019-05-02T18:39:00.566Z,30.82
2019-05-02T18:41:23.530Z,25.10
2019-05-02T18:43:52.023Z,21.75
2019-05-02T18:46:19.947Z,13.62
2019-05-02T18:48:49.135Z,17.77
2019-05-02T18:51:17.146Z,13.90
2019-05-02T18:53:43.317Z,16.70
2019-05-02T18:56:09.935Z,15.32
2019-05-02T18:58:41.469Z,18.15
2019-05-02T19:01:08.565Z,310.98
2019-05-02T19:03:33.409Z,159.60
2019-05-02T19:06:02.012Z,204.23
2019-05-02T19:08:31.642Z,153.18
2019-05-02T19:11:08.815Z,60.88
2019-05-02T19:13:25.177Z,34.78
2019-05-02T19:15:53.460Z,27.10
2019-05-02T19:18:20.172Z,25.35
2019-05-02T19:20:52.549Z,19.15
2019-05-02T19:23:15.167Z,17.20
2019-05-02T19:25:41.787Z,19.95
2019-05-02T19:28:08.359Z,15.70
2019-05-02T19:30:34.957Z,17.82
2019-05-02T19:33:03.707Z,17.75
2019-05-02T19:35:29.911Z,14.60
2019-05-02T19:37:56.483Z,19.05
2019-05-02T19:40:26.872Z,17.15
2019-05-02T19:42:52.711Z,26.60
2019-05-02T19:45:19.485Z,28.45
2019-05-02T19:47:48.942Z,26.07
2019-05-02T19:50:14.405Z,15.50
2019-05-02T19:52:42.882Z,18.35
2019-05-02T19:55:14.188Z,15.60
2019-05-02T19:57:37.615Z,15.78
2019-05-02T20:00:06.461Z,16.85
2019-05-02T20:02:32.823Z,22.40
2019-05-02T20:05:02.688Z,20.48
2019-05-02T20:07:29.155Z,19.55
2019-05-02T20:09:55.721Z,21.55
2019-05-02T20:12:22.324Z,20.72
2019-05-02T20:14:48.916Z,24.25
2019-05-02T20:17:20.225Z,52.75
2019-05-02T20:19:43.841Z,116.40
2019-05-02T20:22:11.846Z,92.67
2019-05-02T20:24:38.600Z,33.98
2019-05-02T20:27:05.214Z,29.10
2019-05-02T20:29:32.131Z,21.20
2019-05-02T20:31:58.983Z,28.42
2019-05-02T20:34:25.554Z,21.15
2019-05-02T20:36:52.172Z,22.95
2019-05-02T20:39:18.758Z,22.00
2019-05-02T20:41:45.372Z,27.50
2019-05-02T20:44:12.294Z,18.82
2019-05-02T20:46:39.033Z,24.80
2019-05-02T20:49:05.605Z,24.00
2019-05-02T20:51:32.270Z,28.98
2019-05-02T20:53:58.848Z,26.17
2019-05-02T20:56:25.469Z,29.72
2019-05-02T20:58:52.604Z,24.45
2019-05-02T21:01:20.865Z,25.48
2019-05-02T21:03:47.442Z,28.17
2019-05-02T21:06:15.933Z,21.15
2019-05-02T21:08:42.510Z,27.70
2019-05-02T21:11:09.132Z,25.25
2019-05-02T21:13:37.640Z,21.60
2019-05-02T21:16:04.024Z,25.32
2019-05-02T21:18:32.646Z,34.48
2019-05-02T21:20:58.926Z,32.45
2019-05-02T21:23:25.489Z,39.85
2019-05-02T21:25:52.481Z,36.33
2019-05-02T21:28:19.294Z,39.60
2019-05-02T21:30:45.869Z,43.60
2019-05-02T21:33:12.465Z,40.67
2019-05-02T21:35:39.311Z,41.28
2019-05-02T21:38:05.909Z,40.88
2019-05-02T21:40:32.692Z,39.33
2019-05-02T21:42:59.479Z,45.35
2019-05-02T21:45:26.050Z,45.92
2019-05-02T21:47:52.820Z,37.33
2019-05-02T21:50:19.406Z,41.20
2019-05-02T21:52:45.999Z,34.75
2019-05-02T21:55:12.574Z,35.83
2019-05-02T21:57:39.183Z,38.90
2019-05-02T22:00:05.785Z,37.48
2019-05-02T22:02:32.416Z,40.90
2019-05-02T22:04:59.003Z,38.60
2019-05-02T22:07:25.609Z,27.67
2019-05-02T22:09:53.627Z,29.32
2019-05-02T22:12:22.419Z,27.62
2019-05-02T22:14:48.592Z,32.00
2019-05-02T22:17:17.109Z,37.73
2019-05-02T22:19:43.516Z,37.15
2019-05-02T22:22:12.103Z,33.78
2019-05-02T22:24:38.418Z,37.75
2019-05-02T22:27:05.034Z,34.38
2019-05-02T22:29:32.490Z,30.60
2019-05-02T22:31:59.161Z,42.53
2019-05-02T22:34:25.898Z,36.03
2019-05-02T22:36:54.353Z,32.20
2019-05-02T22:39:22.169Z,36.00
2019-05-02T22:41:48.947Z,36.28
2019-05-02T22:44:15.552Z,32.93
2019-05-02T22:46:43.168Z,33.10
2019-05-02T22:49:11.883Z,26.17
2019-05-02T22:51:38.516Z,25.10
2019-05-02T22:54:05.104Z,29.67
2019-05-02T22:56:31.782Z,26.68
2019-05-02T22:58:58.375Z,21.95
2019-05-02T23:01:24.949Z,24.10
2019-05-02T23:03:52.445Z,27.40
2019-05-02T23:06:19.222Z,23.92
2019-05-02T23:08:45.827Z,22.62
2019-05-02T23:11:13.011Z,25.30
2019-05-02T23:13:39.686Z,23.40
2019-05-02T23:16:06.269Z,25.10
2019-05-02T23:18:32.879Z,20.37
2019-05-02T23:20:59.457Z,21.15
2019-05-02T23:23:26.057Z,19.50
2019-05-02T23:25:52.666Z,16.55
2019-05-02T23:28:19.280Z,21.87
2019-05-02T23:30:45.857Z,18.40
2019-05-02T23:33:12.989Z,17.40
2019-05-02T23:35:39.719Z,17.77
2019-05-02T23:38:06.320Z,16.65
2019-05-02T23:40:32.911Z,16.23
2019-05-02T23:42:59.526Z,17.07
2019-05-02T23:45:26.110Z,14.83
2019-05-02T23:47:52.888Z,16.05
2019-05-02T23:50:19.572Z,14.20
2019-05-02T23:52:46.143Z,15.20
2019-05-02T23:55:12.759Z,19.10
2019-05-02T23:57:41.868Z,21.57
